Terminal Aerodrome Forecast
Issued by NWS Twin Cities, MN

Home | Current Version | Previous Version | Graphics & Text | Print | Product List | Glossary On
Versions: 1 2 3 4 5 6 7 8 9 10 11 12 13 14 15 16 17 18 19 20 21 22 23 24 25 26 27
000
FTUS43 KMPX 172000 AAB
TAFMSP
TAF AMD
KMSP 172016Z 1720/1824 31007KT P6SM SCT030 SCT250
     FM180000 VRB02KT P6SM SCT250
     FM181000 10006KT P6SM BKN060
     FM181900 11013KT P6SM BKN080=

USA.gov is the U.S. government's official web portal to all federal, state and local government web resources and services.